createdAt,value
2023-01-04T00:01:17.044Z,8.02
2023-01-04T00:03:18.908Z,7.45
2023-01-04T00:05:20.573Z,9.90
2023-01-04T00:07:22.550Z,7.75
2023-01-04T00:09:27.344Z,7.63
2023-01-04T00:11:28.898Z,7.80
2023-01-04T00:13:34.130Z,6.78
2023-01-04T00:15:35.728Z,7.05
2023-01-04T00:17:37.479Z,7.53
2023-01-04T00:19:39.091Z,13.23
2023-01-04T00:21:41.121Z,14.35
2023-01-04T00:23:44.209Z,17.70
2023-01-04T00:25:45.839Z,15.95
2023-01-04T00:27:47.410Z,15.20
2023-01-04T00:29:48.987Z,13.85
2023-01-04T00:31:51.252Z,10.30
2023-01-04T00:33:57.274Z,10.10
2023-01-04T00:36:07.238Z,8.43
2023-01-04T00:38:09.196Z,9.45
2023-01-04T00:40:13.469Z,9.50
2023-01-04T00:42:15.292Z,9.60
2023-01-04T00:44:19.115Z,7.60
2023-01-04T00:46:20.584Z,9.43
2023-01-04T00:48:22.530Z,8.45
2023-01-04T00:50:24.012Z,8.38
2023-01-04T00:52:26.047Z,7.97
2023-01-04T00:54:28.126Z,9.38
2023-01-04T00:56:30.733Z,9.45
2023-01-04T00:58:32.319Z,10.77
2023-01-04T01:00:38.081Z,8.90
2023-01-04T01:02:39.978Z,9.55
2023-01-04T01:04:41.696Z,8.77
2023-01-04T01:06:46.775Z,10.40
2023-01-04T01:08:48.623Z,8.32
2023-01-04T01:10:53.343Z,9.05
2023-01-04T01:12:54.972Z,8.15
2023-01-04T01:15:02.475Z,10.27
2023-01-04T01:17:11.310Z,9.75
2023-01-04T01:19:13.901Z,8.77
2023-01-04T01:21:19.020Z,9.70
2023-01-04T01:23:23.702Z,10.15
2023-01-04T01:25:27.662Z,8.75
2023-01-04T01:27:29.429Z,9.40
2023-01-04T01:29:31.189Z,9.10
2023-01-04T01:31:32.835Z,8.60
2023-01-04T01:33:42.992Z,8.20
2023-01-04T01:35:44.679Z,9.43
2023-01-04T01:37:46.298Z,10.23
2023-01-04T01:39:47.892Z,8.60
2023-01-04T01:41:49.431Z,10.07
2023-01-04T01:44:13.188Z,7.82
2023-01-04T01:46:15.981Z,9.48
2023-01-04T01:48:23.645Z,7.75
2023-01-04T01:50:39.805Z,9.30
2023-01-04T01:52:41.621Z,9.05
2023-01-04T01:54:47.082Z,9.63
2023-01-04T01:56:51.322Z,9.48
2023-01-04T01:58:55.936Z,7.78
2023-01-04T02:01:37.580Z,8.45
2023-01-04T02:03:42.280Z,8.75
2023-01-04T02:06:21.990Z,9.95
2023-01-04T02:08:26.936Z,11.45
2023-01-04T02:10:28.591Z,10.50
2023-01-04T02:12:30.365Z,10.77
2023-01-04T02:14:32.266Z,9.20
2023-01-04T02:16:52.996Z,11.57
2023-01-04T02:19:42.101Z,10.45
2023-01-04T02:22:01.426Z,9.27
2023-01-04T02:24:35.189Z,10.40
2023-01-04T02:26:56.085Z,10.02
2023-01-04T02:29:10.214Z,13.32
2023-01-04T02:31:37.769Z,14.00
2023-01-04T02:33:49.868Z,14.85
2023-01-04T02:36:02.983Z,14.75
2023-01-04T02:38:17.333Z,14.32
2023-01-04T02:40:26.865Z,12.90
2023-01-04T02:43:15.548Z,13.35
2023-01-04T02:45:22.604Z,11.50
2023-01-04T02:47:57.782Z,11.95
2023-01-04T02:50:21.017Z,10.88
2023-01-04T02:52:23.791Z,11.25
2023-01-04T02:54:30.879Z,12.63
2023-01-04T02:57:05.973Z,11.40
2023-01-04T02:59:40.500Z,10.88
2023-01-04T03:02:22.487Z,11.15
2023-01-04T03:04:45.796Z,11.55
2023-01-04T03:06:58.596Z,11.07
2023-01-04T03:09:18.214Z,10.13
2023-01-04T03:11:38.455Z,10.82
2023-01-04T03:13:45.900Z,12.10
2023-01-04T03:16:11.936Z,10.77
2023-01-04T03:18:22.687Z,10.30
2023-01-04T03:20:28.805Z,9.68
2023-01-04T03:22:56.690Z,12.85
2023-01-04T03:25:18.050Z,10.00
2023-01-04T03:27:42.725Z,9.82
2023-01-04T03:30:09.637Z,9.05
2023-01-04T03:32:32.372Z,10.30
2023-01-04T03:34:52.778Z,9.93
2023-01-04T03:37:20.722Z,10.00
2023-01-04T03:39:50.073Z,9.73
2023-01-04T03:42:15.857Z,10.27
2023-01-04T03:44:48.679Z,9.75
2023-01-04T03:47:15.389Z,8.57
2023-01-04T03:49:27.621Z,9.02
2023-01-04T03:51:34.707Z,9.65
2023-01-04T03:53:42.824Z,9.43
2023-01-04T03:55:48.632Z,7.85
2023-01-04T03:57:50.911Z,9.55
2023-01-04T04:00:01.395Z,8.32
2023-01-04T04:02:03.031Z,9.73
2023-01-04T04:04:26.187Z,9.13
2023-01-04T04:06:48.935Z,8.05
2023-01-04T04:08:50.355Z,9.30
2023-01-04T04:10:52.163Z,9.25
2023-01-04T04:12:59.248Z,10.85
2023-01-04T04:15:00.849Z,10.73
2023-01-04T04:17:02.612Z,8.57
2023-01-04T04:19:08.578Z,9.82
2023-01-04T04:21:12.966Z,9.55
2023-01-04T04:23:14.652Z,9.55
2023-01-04T04:25:22.308Z,8.93
2023-01-04T04:27:24.664Z,9.05
2023-01-04T04:29:26.157Z,9.32
2023-01-04T04:31:36.413Z,10.98
2023-01-04T04:33:38.280Z,9.40
2023-01-04T04:35:39.889Z,9.90
2023-01-04T04:37:42.575Z,9.48
2023-01-04T04:39:44.183Z,10.27
2023-01-04T04:41:45.802Z,8.98
2023-01-04T04:43:47.268Z,9.25
2023-01-04T04:45:48.971Z,9.50
2023-01-04T04:47:50.492Z,10.32
2023-01-04T04:49:54.406Z,9.50
2023-01-04T04:51:56.055Z,9.48
2023-01-04T04:53:57.660Z,11.27
2023-01-04T04:55:59.634Z,9.00
2023-01-04T04:58:03.811Z,9.68
2023-01-04T05:00:06.062Z,9.05
2023-01-04T05:02:07.719Z,9.48
2023-01-04T05:04:14.204Z,9.80
2023-01-04T05:06:16.199Z,9.45
2023-01-04T05:08:20.841Z,8.45
2023-01-04T05:10:22.435Z,9.38
2023-01-04T05:12:43.059Z,9.73
2023-01-04T05:14:44.692Z,9.90
2023-01-04T05:16:46.377Z,9.50
2023-01-04T05:18:56.731Z,8.52
2023-01-04T05:20:58.614Z,8.35
2023-01-04T05:23:00.263Z,9.05
2023-01-04T05:25:01.847Z,11.07
2023-01-04T05:27:03.370Z,8.13
2023-01-04T05:29:04.915Z,9.20
2023-01-04T05:31:09.752Z,10.45
2023-01-04T05:33:12.141Z,9.30
2023-01-04T05:35:18.968Z,9.43
2023-01-04T05:37:20.529Z,10.75
2023-01-04T05:39:22.169Z,10.52
2023-01-04T05:41:42.918Z,9.52
2023-01-04T05:43:44.436Z,10.45
2023-01-04T05:45:54.972Z,11.13
2023-01-04T05:47:59.508Z,9.50
2023-01-04T05:50:01.609Z,10.13
2023-01-04T05:52:03.265Z,10.00
2023-01-04T05:54:07.474Z,9.80
2023-01-04T05:56:09.177Z,10.38
2023-01-04T05:58:10.708Z,9.30
2023-01-04T06:00:15.077Z,10.02
2023-01-04T06:02:25.723Z,11.07
2023-01-04T06:04:27.427Z,10.40
2023-01-04T06:06:29.383Z,10.25
2023-01-04T06:08:30.941Z,9.93
2023-01-04T06:10:32.495Z,9.02
2023-01-04T06:12:36.487Z,9.57
2023-01-04T06:14:46.975Z,10.93
2023-01-04T06:16:48.748Z,9.50
2023-01-04T06:18:54.986Z,9.98
2023-01-04T06:21:01.317Z,8.68
2023-01-04T06:23:03.006Z,9.63
2023-01-04T06:25:08.342Z,11.15
2023-01-04T06:27:10.000Z,10.25
2023-01-04T06:29:12.089Z,10.70
2023-01-04T06:31:14.234Z,10.45
2023-01-04T06:33:15.827Z,9.68
2023-01-04T06:35:17.562Z,9.93
2023-01-04T06:37:19.219Z,11.07
2023-01-04T06:39:20.762Z,8.52
2023-01-04T06:41:25.240Z,9.73
2023-01-04T06:43:26.708Z,9.70
2023-01-04T06:45:28.706Z,9.45
2023-01-04T06:47:30.458Z,9.32
2023-01-04T06:49:32.058Z,9.85
2023-01-04T06:51:33.600Z,8.90
2023-01-04T06:53:35.080Z,10.60
2023-01-04T06:55:37.278Z,10.05
2023-01-04T06:57:38.849Z,9.07
2023-01-04T06:59:40.578Z,9.65
2023-01-04T07:01:42.214Z,9.18
2023-01-04T07:03:43.754Z,8.95
2023-01-04T07:05:45.624Z,8.98
2023-01-04T07:07:47.258Z,8.88
2023-01-04T07:09:48.857Z,8.35
2023-01-04T07:11:50.578Z,9.18
2023-01-04T07:13:52.909Z,9.30
2023-01-04T07:15:56.276Z,9.30
2023-01-04T07:17:57.981Z,9.30
2023-01-04T07:19:59.617Z,9.23
2023-01-04T07:22:04.312Z,8.68
2023-01-04T07:24:05.922Z,8.60
2023-01-04T07:26:10.004Z,7.80
2023-01-04T07:28:11.626Z,9.63
2023-01-04T07:30:14.198Z,8.85
2023-01-04T07:32:16.770Z,8.57
2023-01-04T07:34:23.158Z,9.88
2023-01-04T07:36:24.799Z,8.38
2023-01-04T07:38:26.331Z,8.30
2023-01-04T07:40:27.936Z,9.60
2023-01-04T07:42:29.773Z,9.55
2023-01-04T07:44:31.380Z,8.40
2023-01-04T07:46:34.214Z,8.52
2023-01-04T07:48:35.904Z,9.50
2023-01-04T07:50:37.573Z,7.60
2023-01-04T07:52:39.323Z,7.72
2023-01-04T07:54:43.175Z,8.65
2023-01-04T07:56:46.061Z,7.93
2023-01-04T07:58:57.060Z,8.07
2023-01-04T08:01:19.562Z,7.40
2023-01-04T08:03:24.577Z,8.77
2023-01-04T08:05:31.631Z,8.32
2023-01-04T08:07:33.215Z,8.27
2023-01-04T08:09:34.787Z,6.97
2023-01-04T08:11:39.092Z,7.35
2023-01-04T08:13:41.544Z,8.48
2023-01-04T08:15:53.032Z,8.05
2023-01-04T08:17:56.799Z,7.72
2023-01-04T08:19:58.494Z,7.85
2023-01-04T08:22:00.173Z,9.18
2023-01-04T08:24:07.449Z,8.70
2023-01-04T08:26:12.877Z,7.95
2023-01-04T08:28:14.512Z,7.80
2023-01-04T08:30:16.356Z,8.77
2023-01-04T08:32:18.104Z,7.25
2023-01-04T08:34:19.672Z,8.50
2023-01-04T08:36:26.727Z,8.02
2023-01-04T08:38:59.218Z,8.70
2023-01-04T08:41:00.083Z,6.93
2023-01-04T08:43:03.657Z,7.45
2023-01-04T08:45:06.217Z,10.43
2023-01-04T08:47:08.259Z,8.60
2023-01-04T08:49:09.930Z,6.53
2023-01-04T08:51:14.386Z,7.78
2023-01-04T08:53:19.029Z,8.77
2023-01-04T08:55:23.536Z,6.95
2023-01-04T08:57:27.688Z,8.07
2023-01-04T08:59:29.860Z,6.70
2023-01-04T09:01:32.843Z,7.25
2023-01-04T09:03:35.759Z,6.75
2023-01-04T09:05:37.572Z,5.70
2023-01-04T09:07:44.992Z,5.95
2023-01-04T09:09:46.669Z,5.78
2023-01-04T09:11:49.407Z,7.15
2023-01-04T09:14:06.836Z,6.53
2023-01-04T09:16:12.966Z,6.63
2023-01-04T09:18:31.962Z,6.13
2023-01-04T09:20:33.903Z,6.05
2023-01-04T09:22:36.057Z,6.15
2023-01-04T09:24:37.686Z,5.60
2023-01-04T09:26:39.148Z,5.68
2023-01-04T09:28:41.984Z,6.13
2023-01-04T09:30:43.681Z,6.18
2023-01-04T09:32:45.456Z,5.25
2023-01-04T09:34:47.433Z,4.55
2023-01-04T09:36:49.209Z,5.95
2023-01-04T09:38:52.295Z,5.38
2023-01-04T09:40:57.713Z,4.18
2023-01-04T09:43:21.211Z,4.25
2023-01-04T09:45:26.983Z,4.70
2023-01-04T09:47:56.447Z,3.60
2023-01-04T09:50:05.089Z,3.10
2023-01-04T09:52:27.693Z,3.67
2023-01-04T09:54:40.814Z,2.95
2023-01-04T09:56:53.477Z,3.47
2023-01-04T09:58:56.037Z,3.88
2023-01-04T10:01:11.694Z,3.70
2023-01-04T10:03:36.634Z,3.33
2023-01-04T10:05:38.577Z,2.85
2023-01-04T10:07:40.106Z,2.92
2023-01-04T10:09:41.660Z,2.65
2023-01-04T10:11:49.679Z,2.40
2023-01-04T10:14:17.108Z,2.53
2023-01-04T10:17:14.860Z,4.13
2023-01-04T10:22:06.887Z,2.80
2023-01-04T10:24:25.670Z,1.90
2023-01-04T10:26:27.731Z,1.52
2023-01-04T10:28:54.288Z,2.08
2023-01-04T10:31:40.492Z,1.75
2023-01-04T10:33:50.447Z,1.30
2023-01-04T10:36:00.562Z,2.03
2023-01-04T10:38:10.107Z,1.98
2023-01-04T10:40:20.275Z,1.50
2023-01-04T10:42:34.193Z,1.30
2023-01-04T10:45:08.618Z,2.35
2023-01-04T10:47:20.044Z,3.38
2023-01-04T10:49:46.009Z,1.42
2023-01-04T10:51:57.299Z,0.80
2023-01-04T10:54:06.632Z,0.80
2023-01-04T10:56:27.206Z,1.17
2023-01-04T10:58:52.371Z,1.17
2023-01-04T11:01:03.921Z,0.73
2023-01-04T11:03:19.110Z,1.00
2023-01-04T11:05:29.731Z,0.57
2023-01-04T11:07:39.688Z,0.80
2023-01-04T11:10:10.885Z,0.75
2023-01-04T11:12:15.689Z,1.95
2023-01-04T11:14:17.725Z,1.30
2023-01-04T11:16:19.963Z,0.57
2023-01-04T11:18:22.002Z,0.60
2023-01-04T11:20:26.857Z,1.77
2023-01-04T11:22:49.640Z,1.02
2023-01-04T11:27:27.261Z,1.65
2023-01-04T11:29:50.057Z,0.93
2023-01-04T11:31:57.038Z,1.25
2023-01-04T11:33:59.932Z,0.70
2023-01-04T11:36:02.964Z,1.65
2023-01-04T11:40:28.657Z,0.85
2023-01-04T11:42:31.621Z,0.98
2023-01-04T11:44:35.022Z,0.98
2023-01-04T11:46:39.836Z,1.00
2023-01-04T11:48:44.161Z,1.10
2023-01-04T11:50:55.841Z,1.63
2023-01-04T11:52:57.274Z,0.93
2023-01-04T11:55:23.931Z,1.60
2023-01-04T11:57:28.437Z,0.90
2023-01-04T11:59:30.094Z,1.67
2023-01-04T12:01:35.175Z,0.55
2023-01-04T12:03:39.281Z,1.67
2023-01-04T12:05:41.396Z,0.60
2023-01-04T12:07:43.266Z,1.55
2023-01-04T12:09:44.971Z,1.40
2023-01-04T12:11:53.198Z,1.52
2023-01-04T12:13:54.970Z,2.65
2023-01-04T12:16:11.458Z,1.13
2023-01-04T12:18:22.818Z,1.52
2023-01-04T12:20:27.905Z,2.40
2023-01-04T12:22:40.996Z,1.27
2023-01-04T12:24:46.046Z,1.75
2023-01-04T12:26:48.670Z,2.42
2023-01-04T12:29:24.636Z,1.42
2023-01-04T12:31:34.925Z,1.50
2023-01-04T12:33:38.212Z,1.55
2023-01-04T12:35:59.711Z,3.47
2023-01-04T12:38:02.485Z,2.58
2023-01-04T12:40:42.857Z,2.80
2023-01-04T12:43:16.716Z,4.57
2023-01-04T12:45:22.565Z,2.25
2023-01-04T12:47:45.796Z,3.13
2023-01-04T12:49:57.680Z,5.45
2023-01-04T12:54:46.669Z,2.85
2023-01-04T12:57:17.086Z,3.03
2023-01-04T12:59:33.408Z,1.90
2023-01-04T13:01:36.580Z,1.80
2023-01-04T13:03:48.006Z,3.53
2023-01-04T13:06:04.211Z,1.65
2023-01-04T13:08:11.397Z,1.50
2023-01-04T13:10:19.132Z,2.67
2023-01-04T13:12:42.398Z,3.85
2023-01-04T13:14:49.477Z,1.98
2023-01-04T13:17:13.109Z,1.05
2023-01-04T13:19:28.710Z,1.23
2023-01-04T13:21:39.325Z,1.52
2023-01-04T13:23:50.038Z,1.35
2023-01-04T13:25:52.864Z,1.58
2023-01-04T13:28:05.177Z,1.40
2023-01-04T13:30:07.021Z,1.50
2023-01-04T13:32:29.988Z,2.55
2023-01-04T13:34:53.315Z,1.70
2023-01-04T13:37:02.990Z,0.95
2023-01-04T13:39:07.632Z,0.95
2023-01-04T13:41:21.327Z,1.05
2023-01-04T13:43:44.503Z,1.75
2023-01-04T13:46:06.721Z,0.90
2023-01-04T13:48:14.540Z,2.35
2023-01-04T13:50:40.421Z,0.88
2023-01-04T13:52:56.474Z,2.38
2023-01-04T13:55:21.024Z,1.88
2023-01-04T13:57:22.781Z,1.65
2023-01-04T13:59:24.633Z,1.48
2023-01-04T14:01:38.924Z,1.48
2023-01-04T14:03:53.611Z,1.10
2023-01-04T14:06:03.023Z,1.20
2023-01-04T14:08:11.685Z,1.60
2023-01-04T14:10:18.903Z,1.55
2023-01-04T14:12:24.947Z,1.83
2023-01-04T14:15:00.463Z,1.13
2023-01-04T14:17:44.467Z,0.80
2023-01-04T14:19:56.785Z,1.15
2023-01-04T14:21:58.484Z,2.17
2023-01-04T14:24:00.116Z,2.88
2023-01-04T14:26:02.006Z,1.38
2023-01-04T14:28:19.253Z,1.60
2023-01-04T14:30:20.953Z,1.10
2023-01-04T14:32:22.890Z,1.65
2023-01-04T14:34:24.464Z,0.95
2023-01-04T14:36:32.428Z,1.38
2023-01-04T14:38:38.846Z,1.83
2023-01-04T14:40:41.295Z,2.00
2023-01-04T14:42:42.911Z,1.92
2023-01-04T14:44:45.943Z,1.60
2023-01-04T14:46:56.223Z,0.82
2023-01-04T14:48:58.922Z,0.98
2023-01-04T14:51:01.036Z,1.77
2023-01-04T14:53:02.675Z,0.82
2023-01-04T14:55:05.670Z,1.20
2023-01-04T14:57:08.823Z,1.80
2023-01-04T14:59:10.785Z,0.70
2023-01-04T15:01:13.062Z,1.60
2023-01-04T15:03:14.937Z,0.93
2023-01-04T15:05:16.680Z,1.63
2023-01-04T15:07:35.483Z,0.95
2023-01-04T15:09:37.209Z,1.85
2023-01-04T15:11:42.564Z,1.27
2023-01-04T15:13:44.372Z,0.82
2023-01-04T15:15:46.068Z,0.98
2023-01-04T15:17:48.503Z,1.25
2023-01-04T15:19:53.143Z,2.20
2023-01-04T15:21:54.764Z,1.00
2023-01-04T15:23:56.255Z,0.77
2023-01-04T15:25:58.064Z,0.63
2023-01-04T15:27:59.705Z,1.40
2023-01-04T15:30:01.535Z,1.63
2023-01-04T15:32:03.197Z,1.20
2023-01-04T15:34:07.539Z,1.48
2023-01-04T15:36:13.620Z,0.98
2023-01-04T15:38:18.528Z,0.80
2023-01-04T15:40:23.025Z,1.35
2023-01-04T15:42:46.399Z,1.20
2023-01-04T15:44:47.949Z,1.92
2023-01-04T15:46:51.383Z,2.95
2023-01-04T15:49:01.622Z,0.80
2023-01-04T15:51:06.993Z,2.63
2023-01-04T15:53:16.872Z,2.15
2023-01-04T15:55:20.567Z,0.88
2023-01-04T15:57:22.143Z,1.10
2023-01-04T15:59:24.459Z,1.00
2023-01-04T16:01:26.252Z,1.20
2023-01-04T16:03:27.995Z,0.75
2023-01-04T16:05:39.732Z,1.60
2023-01-04T16:07:41.317Z,1.45
2023-01-04T16:09:42.990Z,2.00
2023-01-04T16:12:09.034Z,0.95
2023-01-04T16:14:10.574Z,1.02
2023-01-04T16:16:13.038Z,2.40
2023-01-04T16:18:17.822Z,1.30
2023-01-04T16:20:20.325Z,2.55
2023-01-04T16:22:29.098Z,1.10
2023-01-04T16:25:09.423Z,1.73
2023-01-04T16:26:52.450Z,1.90
2023-01-04T16:28:58.378Z,1.75
2023-01-04T16:31:00.543Z,0.98
2023-01-04T16:33:05.000Z,2.60
2023-01-04T16:35:18.690Z,2.03
2023-01-04T16:37:20.685Z,1.38
2023-01-04T16:39:42.038Z,1.73
2023-01-04T16:41:44.987Z,2.95
2023-01-04T16:43:49.172Z,2.28
2023-01-04T16:45:50.800Z,2.58
2023-01-04T16:47:54.040Z,2.38
2023-01-04T16:49:58.866Z,1.33
2023-01-04T16:52:05.459Z,1.98
2023-01-04T16:54:12.347Z,1.13
2023-01-04T16:56:16.188Z,2.42
2023-01-04T16:58:18.142Z,1.35
2023-01-04T17:00:19.923Z,1.83
2023-01-04T17:02:23.054Z,1.00
2023-01-04T17:04:25.167Z,2.05
2023-01-04T17:06:36.006Z,1.80
2023-01-04T17:08:37.537Z,1.15
2023-01-04T17:10:39.438Z,3.85
2023-01-04T17:12:47.693Z,1.67
2023-01-04T17:15:08.027Z,1.73
2023-01-04T17:17:15.572Z,2.50
2023-01-04T17:19:18.018Z,1.20
2023-01-04T17:21:35.676Z,1.73
2023-01-04T17:23:47.717Z,1.48
2023-01-04T17:25:55.379Z,1.30
2023-01-04T17:27:58.445Z,1.20
2023-01-04T17:30:02.460Z,1.55
2023-01-04T17:32:04.422Z,2.22
2023-01-04T17:34:08.291Z,1.45
2023-01-04T17:36:15.675Z,1.40
2023-01-04T17:38:18.577Z,1.25
2023-01-04T17:40:23.184Z,1.83
2023-01-04T17:42:25.259Z,1.90
2023-01-04T17:44:27.066Z,0.98
2023-01-04T17:46:35.885Z,1.88
2023-01-04T17:48:37.739Z,1.17
2023-01-04T17:50:42.008Z,1.20
2023-01-04T17:52:43.809Z,1.00
2023-01-04T17:54:45.521Z,1.08
2023-01-04T17:56:47.198Z,1.30
2023-01-04T17:58:48.651Z,0.70
2023-01-04T18:00:50.337Z,1.00
2023-01-04T18:02:51.937Z,0.77
2023-01-04T18:04:53.908Z,1.42
2023-01-04T18:06:57.394Z,2.13
2023-01-04T18:09:04.506Z,0.60
2023-01-04T18:11:08.299Z,0.50
2023-01-04T18:13:10.312Z,0.98
2023-01-04T18:15:14.450Z,0.77
2023-01-04T18:17:16.084Z,1.63
2023-01-04T18:19:17.682Z,0.98
2023-01-04T18:21:30.050Z,0.50
2023-01-04T18:23:31.910Z,0.85
2023-01-04T18:25:34.450Z,1.23
2023-01-04T18:27:38.977Z,0.75
2023-01-04T18:29:40.739Z,1.55
2023-01-04T18:31:42.198Z,0.80
2023-01-04T18:33:51.941Z,1.40
2023-01-04T18:35:53.681Z,2.67
2023-01-04T18:38:01.054Z,2.30
2023-01-04T18:40:04.398Z,3.10
2023-01-04T18:42:13.300Z,4.07
2023-01-04T18:46:42.093Z,1.75
2023-01-04T18:48:48.746Z,1.30
2023-01-04T18:50:53.535Z,1.02
2023-01-04T18:52:57.518Z,1.60
2023-01-04T18:54:59.110Z,1.13
2023-01-04T18:57:07.853Z,0.88
2023-01-04T18:59:09.997Z,0.73
2023-01-04T19:01:16.676Z,2.05
2023-01-04T19:03:24.250Z,1.08
2023-01-04T19:05:27.745Z,0.95
2023-01-04T19:07:32.072Z,1.83
2023-01-04T19:09:33.750Z,1.45
2023-01-04T19:11:36.290Z,1.13
2023-01-04T19:13:38.983Z,0.95
2023-01-04T19:15:47.657Z,1.67
2023-01-04T19:17:49.743Z,1.48
2023-01-04T19:19:52.983Z,1.20
2023-01-04T19:21:54.516Z,2.25
2023-01-04T19:23:56.600Z,0.90
2023-01-04T19:25:58.409Z,0.75
2023-01-04T19:28:00.081Z,1.00
2023-01-04T19:30:01.928Z,0.63
2023-01-04T19:32:05.022Z,0.73
2023-01-04T19:34:08.804Z,2.00
2023-01-04T19:36:12.598Z,4.53
2023-01-04T19:38:17.461Z,5.10
2023-01-04T19:40:19.167Z,6.50
2023-01-04T19:42:20.645Z,4.32
2023-01-04T19:44:23.813Z,6.00
2023-01-04T19:46:25.503Z,3.90
2023-01-04T19:48:27.410Z,3.78
2023-01-04T19:50:31.628Z,4.53
2023-01-04T19:52:37.520Z,2.95
2023-01-04T19:54:45.271Z,1.88
2023-01-04T19:56:49.255Z,1.25
2023-01-04T19:58:51.085Z,1.17
2023-01-04T20:00:55.342Z,1.38
2023-01-04T20:02:57.084Z,1.90
2023-01-04T20:05:01.856Z,4.75
2023-01-04T20:07:03.591Z,4.97
2023-01-04T20:09:05.477Z,5.90
2023-01-04T20:11:08.009Z,5.53
2023-01-04T20:13:09.689Z,4.97
2023-01-04T20:15:14.071Z,2.88
2023-01-04T20:17:16.182Z,2.15
2023-01-04T20:19:22.355Z,1.83
2023-01-04T20:21:24.198Z,1.42
2023-01-04T20:23:32.763Z,1.30
2023-01-04T20:25:38.922Z,1.20
2023-01-04T20:27:41.473Z,1.65
2023-01-04T20:29:42.953Z,0.80
2023-01-04T20:31:45.907Z,1.00
2023-01-04T20:33:47.849Z,1.05
2023-01-04T20:35:52.489Z,1.13
2023-01-04T20:37:59.731Z,0.80
2023-01-04T20:40:01.348Z,1.10
2023-01-04T20:42:25.283Z,0.98
2023-01-04T20:44:30.109Z,1.25
2023-01-04T20:46:32.970Z,0.70
2023-01-04T20:48:34.669Z,1.33
2023-01-04T20:50:36.376Z,1.10
2023-01-04T20:52:37.801Z,0.88
2023-01-04T20:54:39.378Z,1.13
2023-01-04T20:56:41.294Z,0.98
2023-01-04T20:58:47.754Z,1.35
2023-01-04T21:00:49.598Z,1.00
2023-01-04T21:02:52.167Z,0.95
2023-01-04T21:04:58.456Z,1.02
2023-01-04T21:07:00.098Z,1.40
2023-01-04T21:09:01.748Z,0.80
2023-01-04T21:11:04.652Z,0.60
2023-01-04T21:13:07.617Z,0.77
2023-01-04T21:15:09.531Z,0.80
2023-01-04T21:17:11.285Z,0.82
2023-01-04T21:19:15.612Z,1.60
2023-01-04T21:21:21.193Z,0.68
2023-01-04T21:23:25.415Z,1.00
2023-01-04T21:25:27.384Z,0.73
2023-01-04T21:27:31.358Z,0.57
2023-01-04T21:29:33.221Z,0.88
2023-01-04T21:31:35.660Z,1.02
2023-01-04T21:33:37.835Z,0.55
2023-01-04T21:35:40.577Z,0.50
2023-01-04T21:37:42.329Z,1.85
2023-01-04T21:39:43.918Z,0.40
2023-01-04T21:41:48.248Z,0.55
2023-01-04T21:43:51.741Z,0.93
2023-01-04T21:45:53.378Z,0.43
2023-01-04T21:47:55.376Z,0.52
2023-01-04T21:49:57.465Z,0.82
2023-01-04T21:51:59.352Z,1.52
2023-01-04T21:54:01.810Z,0.60
2023-01-04T21:56:08.697Z,1.17
2023-01-04T21:58:10.317Z,0.47
2023-01-04T22:00:15.233Z,0.40
2023-01-04T22:02:19.135Z,0.70
2023-01-04T22:04:23.370Z,19.98
2023-01-04T22:06:27.976Z,25.98
2023-01-04T22:08:30.252Z,18.77
2023-01-04T22:10:34.392Z,13.70
2023-01-04T22:12:36.307Z,11.57
2023-01-04T22:14:38.235Z,6.18
2023-01-04T22:16:40.031Z,4.30
2023-01-04T22:18:46.039Z,3.53
2023-01-04T22:21:00.490Z,1.88
2023-01-04T22:23:02.262Z,1.77
2023-01-04T22:25:04.017Z,1.33
2023-01-04T22:27:05.694Z,1.38
2023-01-04T22:29:13.161Z,0.70
2023-01-04T22:31:15.286Z,0.50
2023-01-04T22:33:20.091Z,0.50
2023-01-04T22:35:22.173Z,0.40
2023-01-04T22:37:23.936Z,0.50
2023-01-04T22:39:28.543Z,0.60
2023-01-04T22:41:30.095Z,0.43
2023-01-04T22:43:31.819Z,0.43
2023-01-04T22:45:33.571Z,0.70
2023-01-04T22:47:36.105Z,0.30
2023-01-04T22:49:39.978Z,0.30
2023-01-04T22:51:43.002Z,1.13
2023-01-04T22:53:47.159Z,0.38
2023-01-04T22:58:11.046Z,1.63
2023-01-04T23:00:14.773Z,0.32
2023-01-04T23:02:17.709Z,0.40
2023-01-04T23:04:19.818Z,3.53
2023-01-04T23:06:22.425Z,7.40
2023-01-04T23:08:26.933Z,9.20
2023-01-04T23:10:28.576Z,7.68
2023-01-04T23:12:33.265Z,5.85
2023-01-04T23:14:35.018Z,4.10
2023-01-04T23:16:36.815Z,3.30
2023-01-04T23:18:38.938Z,2.35
2023-01-04T23:20:40.535Z,1.63
2023-01-04T23:22:45.196Z,1.38
2023-01-04T23:24:48.645Z,1.15
2023-01-04T23:26:52.430Z,0.75
2023-01-04T23:28:57.979Z,0.70
2023-01-04T23:31:07.780Z,1.98
2023-01-04T23:33:10.666Z,0.70
2023-01-04T23:35:12.548Z,1.25
2023-01-04T23:37:15.422Z,1.13
2023-01-04T23:39:17.118Z,0.60
2023-01-04T23:41:19.015Z,1.42
2023-01-04T23:43:20.585Z,1.02
2023-01-04T23:45:26.239Z,0.93
2023-01-04T23:47:27.962Z,0.50
2023-01-04T23:49:31.275Z,0.70
2023-01-04T23:51:34.289Z,1.40
2023-01-04T23:53:36.007Z,1.15
2023-01-04T23:55:37.815Z,1.15
2023-01-04T23:57:39.632Z,0.57
2023-01-04T23:59:41.335Z,1.25
